createdAt,value
2022-07-25T00:01:49.548Z,21.60
2022-07-25T00:04:17.523Z,21.50
2022-07-25T00:06:45.609Z,21.50
2022-07-25T00:09:13.003Z,21.50
2022-07-25T00:11:39.937Z,21.40
2022-07-25T00:14:07.391Z,21.40
2022-07-25T00:16:34.703Z,21.40
2022-07-25T00:19:01.501Z,21.30
2022-07-25T00:21:28.609Z,21.30
2022-07-25T00:23:55.398Z,21.20
2022-07-25T00:26:22.253Z,21.20
2022-07-25T00:28:49.037Z,21.00
2022-07-25T00:31:15.825Z,21.00
2022-07-25T00:33:42.850Z,21.00
2022-07-25T00:36:09.898Z,20.90
2022-07-25T00:38:36.805Z,20.90
2022-07-25T00:41:04.616Z,20.90
2022-07-25T00:43:31.963Z,20.80
2022-07-25T00:45:59.785Z,20.80
2022-07-25T00:48:28.971Z,20.80
2022-07-25T00:50:57.269Z,20.70
2022-07-25T00:53:25.621Z,20.70
2022-07-25T00:55:52.958Z,20.70
2022-07-25T00:58:19.867Z,20.60
2022-07-25T01:00:47.501Z,20.60
2022-07-25T01:03:14.957Z,20.60
2022-07-25T01:05:42.229Z,20.60
2022-07-25T01:08:10.174Z,20.50
2022-07-25T01:10:37.676Z,20.50
2022-07-25T01:13:04.891Z,20.50
2022-07-25T01:15:31.830Z,20.50
2022-07-25T01:17:58.696Z,20.50
2022-07-25T01:20:28.656Z,20.50
2022-07-25T01:22:58.078Z,20.40
2022-07-25T01:25:26.745Z,20.50
2022-07-25T01:27:56.145Z,20.40
2022-07-25T01:30:25.192Z,20.40
2022-07-25T01:32:52.780Z,20.30
2022-07-25T01:35:20.445Z,20.20
2022-07-25T01:37:48.691Z,20.20
2022-07-25T01:40:16.954Z,20.20
2022-07-25T01:42:44.040Z,20.10
2022-07-25T01:45:14.502Z,20.10
2022-07-25T01:47:41.498Z,20.10
2022-07-25T01:50:09.540Z,20.00
2022-07-25T01:52:37.731Z,20.00
2022-07-25T01:55:04.929Z,20.00
2022-07-25T01:57:33.441Z,20.00
2022-07-25T02:00:05.876Z,20.00
2022-07-25T02:02:42.720Z,20.00
2022-07-25T02:05:11.254Z,20.00
2022-07-25T02:07:40.435Z,19.90
2022-07-25T02:10:09.905Z,19.80
2022-07-25T02:12:36.869Z,19.80
2022-07-25T02:15:04.013Z,19.70
2022-07-25T02:17:30.926Z,19.70
2022-07-25T02:20:00.656Z,19.70
2022-07-25T02:22:27.593Z,19.70
2022-07-25T02:24:54.403Z,19.70
2022-07-25T02:27:21.282Z,19.70
2022-07-25T02:29:48.248Z,19.60
2022-07-25T02:32:15.163Z,19.60
2022-07-25T02:34:42.013Z,19.60
2022-07-25T02:37:09.103Z,19.60
2022-07-25T02:39:36.096Z,19.50
2022-07-25T02:42:03.035Z,19.50
2022-07-25T02:44:30.023Z,19.50
2022-07-25T02:46:57.478Z,19.40
2022-07-25T02:49:24.475Z,19.40
2022-07-25T02:51:51.256Z,19.40
2022-07-25T02:54:18.209Z,19.40
2022-07-25T02:56:45.272Z,19.40
2022-07-25T02:59:12.057Z,19.40
2022-07-25T03:01:38.972Z,19.40
2022-07-25T03:04:06.101Z,19.30
2022-07-25T03:06:33.173Z,19.30
2022-07-25T03:09:00.046Z,19.30
2022-07-25T03:11:26.949Z,19.30
2022-07-25T03:13:53.725Z,19.30
2022-07-25T03:16:20.812Z,19.30
2022-07-25T03:18:47.703Z,19.30
2022-07-25T03:21:14.637Z,19.20
2022-07-25T03:23:41.435Z,19.20
2022-07-25T03:26:08.183Z,19.10
2022-07-25T03:28:35.144Z,19.10
2022-07-25T03:31:02.363Z,19.10
2022-07-25T03:33:29.269Z,19.00
2022-07-25T03:35:56.657Z,19.00
2022-07-25T03:38:24.815Z,19.00
2022-07-25T03:40:51.570Z,19.00
2022-07-25T03:43:18.372Z,19.00
2022-07-25T03:45:45.239Z,18.90
2022-07-25T03:48:12.434Z,18.90
2022-07-25T03:50:39.287Z,18.70
2022-07-25T03:53:06.089Z,18.90
2022-07-25T03:55:32.980Z,18.90
2022-07-25T03:57:59.961Z,18.90
2022-07-25T04:00:26.941Z,18.90
2022-07-25T04:02:54.028Z,18.90
2022-07-25T04:05:20.912Z,19.00
2022-07-25T04:07:47.630Z,18.90
2022-07-25T04:10:15.430Z,19.00
2022-07-25T04:12:42.356Z,19.00
2022-07-25T04:15:10.382Z,19.00
2022-07-25T04:17:37.616Z,19.00
2022-07-25T04:20:07.446Z,19.00
2022-07-25T04:22:35.377Z,19.20
2022-07-25T04:25:02.185Z,19.40
2022-07-25T04:27:28.977Z,19.50
2022-07-25T04:29:55.718Z,19.70
2022-07-25T04:32:23.701Z,19.80
2022-07-25T04:34:52.580Z,19.80
2022-07-25T04:37:19.543Z,19.90
2022-07-25T04:39:47.328Z,20.00
2022-07-25T04:42:14.077Z,20.20
2022-07-25T04:44:40.909Z,20.30
2022-07-25T04:47:08.445Z,20.50
2022-07-25T04:49:35.245Z,20.80
2022-07-25T04:52:02.025Z,21.10
2022-07-25T04:54:29.060Z,21.50
2022-07-25T04:56:55.995Z,21.80
2022-07-25T04:59:22.982Z,22.30
2022-07-25T05:01:49.850Z,22.80
2022-07-25T05:04:16.702Z,23.20
2022-07-25T05:06:43.785Z,23.40
2022-07-25T05:09:10.581Z,23.50
2022-07-25T05:11:37.610Z,23.30
2022-07-25T05:14:04.721Z,22.90
2022-07-25T05:16:32.537Z,22.70
2022-07-25T05:18:59.515Z,22.60
2022-07-25T05:21:26.577Z,22.50
2022-07-25T05:23:53.537Z,22.40
2022-07-25T05:26:20.483Z,22.30
2022-07-25T05:28:47.274Z,22.30
2022-07-25T05:31:14.117Z,22.30
2022-07-25T05:33:41.093Z,22.30
2022-07-25T05:36:09.028Z,22.30
2022-07-25T05:38:35.886Z,22.30
2022-07-25T05:41:03.129Z,22.50
2022-07-25T05:43:29.916Z,22.40
2022-07-25T05:46:04.603Z,22.50
2022-07-25T05:48:31.944Z,22.50
2022-07-25T05:50:59.463Z,22.60
2022-07-25T05:53:26.272Z,22.60
2022-07-25T05:55:53.020Z,22.70
2022-07-25T05:58:19.814Z,22.90
2022-07-25T06:00:46.691Z,22.90
2022-07-25T06:03:13.540Z,23.10
2022-07-25T06:05:40.526Z,23.20
2022-07-25T06:08:07.262Z,23.40
2022-07-25T06:10:34.098Z,23.50
2022-07-25T06:13:02.589Z,23.60
2022-07-25T06:15:29.378Z,23.80
2022-07-25T06:17:56.846Z,23.90
2022-07-25T06:20:26.832Z,24.10
2022-07-25T06:22:53.708Z,24.30
2022-07-25T06:25:20.554Z,24.30
2022-07-25T06:27:47.438Z,24.50
2022-07-25T06:30:19.718Z,24.60
2022-07-25T06:32:48.381Z,24.70
2022-07-25T06:35:15.881Z,24.70
2022-07-25T06:37:44.031Z,24.80
2022-07-25T06:40:11.790Z,25.00
2022-07-25T06:42:47.844Z,25.00
2022-07-25T06:45:16.452Z,25.20
2022-07-25T06:47:44.644Z,25.30
2022-07-25T06:50:14.749Z,25.50
2022-07-25T06:52:42.550Z,25.60
2022-07-25T06:55:10.752Z,25.70
2022-07-25T06:57:37.967Z,25.90
2022-07-25T07:00:09.771Z,26.00
2022-07-25T07:02:50.027Z,26.10
2022-07-25T07:05:17.011Z,26.30
2022-07-25T07:07:47.551Z,26.40
2022-07-25T07:10:15.092Z,26.50
2022-07-25T07:12:41.972Z,26.60
2022-07-25T07:15:10.135Z,26.80
2022-07-25T07:17:37.098Z,26.90
2022-07-25T07:20:06.099Z,27.00
2022-07-25T07:22:33.251Z,27.10
2022-07-25T07:25:00.001Z,27.10
2022-07-25T07:27:26.824Z,27.20
2022-07-25T07:29:53.999Z,27.40
2022-07-25T07:32:22.079Z,27.40
2022-07-25T07:34:49.037Z,27.50
2022-07-25T07:37:15.827Z,27.50
2022-07-25T07:39:42.546Z,27.60
2022-07-25T07:42:09.379Z,27.70
2022-07-25T07:44:36.205Z,27.80
2022-07-25T07:47:03.210Z,27.90
2022-07-25T07:49:30.280Z,28.10
2022-07-25T07:52:03.898Z,28.10
2022-07-25T07:54:49.613Z,28.20
2022-07-25T07:57:16.412Z,28.30
2022-07-25T07:59:43.332Z,28.30
2022-07-25T08:02:10.163Z,28.40
2022-07-25T08:04:37.004Z,28.40
2022-07-25T08:07:03.785Z,28.50
2022-07-25T08:09:31.496Z,28.70
2022-07-25T08:11:58.288Z,28.80
2022-07-25T08:14:25.009Z,28.90
2022-07-25T08:16:52.990Z,28.90
2022-07-25T08:19:19.806Z,29.00
2022-07-25T08:21:46.789Z,29.00
2022-07-25T08:24:14.009Z,29.10
2022-07-25T08:26:41.120Z,29.20
2022-07-25T08:29:28.064Z,29.30
2022-07-25T08:31:54.733Z,29.40
2022-07-25T08:34:22.471Z,29.40
2022-07-25T08:36:49.734Z,29.50
2022-07-25T08:39:16.534Z,29.60
2022-07-25T08:41:43.526Z,29.70
2022-07-25T08:44:10.987Z,29.80
2022-07-25T08:46:40.365Z,29.90
2022-07-25T08:49:08.990Z,29.90
2022-07-25T08:51:36.129Z,29.90
2022-07-25T08:54:04.673Z,29.90
2022-07-25T08:56:33.661Z,29.90
2022-07-25T08:59:00.543Z,30.20
2022-07-25T09:01:31.518Z,30.30
2022-07-25T09:04:03.048Z,30.50
2022-07-25T09:06:37.503Z,30.60
2022-07-25T09:09:08.541Z,30.80
2022-07-25T09:11:37.369Z,30.80
2022-07-25T09:14:08.851Z,31.00
2022-07-25T09:16:44.339Z,31.10
2022-07-25T09:19:20.098Z,31.10
2022-07-25T09:22:04.205Z,31.20
2022-07-25T09:24:32.261Z,31.10
2022-07-25T09:27:01.338Z,31.20
2022-07-25T09:29:31.842Z,31.30
2022-07-25T09:32:00.010Z,31.30
2022-07-25T09:34:52.935Z,31.50
2022-07-25T09:37:25.810Z,31.60
2022-07-25T09:39:52.661Z,31.80
2022-07-25T09:42:22.779Z,31.70
2022-07-25T09:45:12.877Z,31.80
2022-07-25T09:47:52.084Z,31.90
2022-07-25T09:50:19.570Z,32.00
2022-07-25T09:52:46.793Z,31.90
2022-07-25T09:55:16.877Z,32.00
2022-07-25T09:57:45.092Z,32.10
2022-07-25T10:00:19.010Z,32.30
2022-07-25T10:02:55.324Z,32.40
2022-07-25T10:05:22.161Z,32.60
2022-07-25T10:07:52.820Z,32.70
2022-07-25T10:10:26.908Z,32.70
2022-07-25T10:13:11.221Z,32.70
2022-07-25T10:15:45.936Z,32.70
2022-07-25T10:18:13.898Z,32.70
2022-07-25T10:20:41.172Z,32.70
2022-07-25T10:23:27.525Z,32.70
2022-07-25T10:26:03.396Z,32.50
2022-07-25T10:28:45.360Z,32.40
2022-07-25T10:31:24.729Z,32.50
2022-07-25T10:33:56.635Z,32.70
2022-07-25T10:36:25.191Z,33.00
2022-07-25T10:38:56.004Z,33.00
2022-07-25T10:41:26.001Z,33.10
2022-07-25T10:43:56.075Z,32.90
2022-07-25T10:46:27.211Z,32.90
2022-07-25T10:49:05.896Z,33.00
2022-07-25T10:51:41.519Z,33.20
2022-07-25T10:54:16.445Z,33.40
2022-07-25T10:56:57.410Z,33.50
2022-07-25T10:59:42.435Z,33.70
2022-07-25T11:02:17.212Z,33.70
2022-07-25T11:04:45.998Z,33.90
2022-07-25T11:07:15.917Z,34.10
2022-07-25T11:09:43.818Z,34.10
2022-07-25T11:12:15.276Z,34.40
2022-07-25T11:14:43.053Z,34.50
2022-07-25T11:17:22.694Z,34.50
2022-07-25T11:19:59.976Z,34.40
2022-07-25T11:22:28.209Z,34.20
2022-07-25T11:24:57.091Z,34.20
2022-07-25T11:27:30.686Z,34.20
2022-07-25T11:30:15.225Z,34.30
2022-07-25T11:32:59.236Z,34.10
2022-07-25T11:35:28.265Z,34.30
2022-07-25T11:37:56.032Z,34.40
2022-07-25T11:40:25.684Z,34.50
2022-07-25T11:42:54.967Z,34.50
2022-07-25T11:45:23.077Z,34.50
2022-07-25T11:48:05.463Z,34.60
2022-07-25T11:50:35.069Z,34.80
2022-07-25T11:53:05.298Z,34.90
2022-07-25T11:55:37.172Z,34.90
2022-07-25T11:58:05.354Z,34.80
2022-07-25T12:00:36.501Z,34.70
2022-07-25T12:03:08.790Z,34.60
2022-07-25T12:05:36.163Z,34.60
2022-07-25T12:08:17.583Z,34.80
2022-07-25T12:10:47.434Z,34.90
2022-07-25T12:13:29.818Z,35.10
2022-07-25T12:15:58.519Z,35.20
2022-07-25T12:18:26.268Z,35.10
2022-07-25T12:20:53.302Z,35.20
2022-07-25T12:23:21.648Z,35.30
2022-07-25T12:25:49.133Z,35.40
2022-07-25T12:28:15.933Z,35.40
2022-07-25T12:30:44.647Z,35.30
2022-07-25T12:33:12.917Z,35.30
2022-07-25T12:35:43.941Z,35.30
2022-07-25T12:38:11.216Z,35.30
2022-07-25T12:40:38.381Z,34.80
2022-07-25T12:43:05.365Z,34.80
2022-07-25T12:45:32.469Z,34.90
2022-07-25T12:47:59.468Z,34.90
2022-07-25T12:50:26.384Z,34.70
2022-07-25T12:52:53.397Z,34.70
2022-07-25T12:55:20.617Z,34.50
2022-07-25T12:57:49.264Z,34.60
2022-07-25T13:00:19.333Z,34.60
2022-07-25T13:02:46.763Z,34.70
2022-07-25T13:05:13.622Z,34.80
2022-07-25T13:07:40.555Z,35.10
2022-07-25T13:10:08.017Z,35.30
2022-07-25T13:12:35.133Z,35.50
2022-07-25T13:15:02.498Z,35.40
2022-07-25T13:17:29.516Z,35.50
2022-07-25T13:19:57.170Z,35.40
2022-07-25T13:22:25.530Z,35.40
2022-07-25T13:24:52.951Z,35.40
2022-07-25T13:27:21.650Z,35.40
2022-07-25T13:29:54.065Z,35.50
2022-07-25T13:32:22.584Z,35.60
2022-07-25T13:34:49.537Z,35.60
2022-07-25T13:37:16.405Z,35.60
2022-07-25T13:39:43.239Z,35.70
2022-07-25T13:42:10.132Z,35.80
2022-07-25T13:44:36.878Z,35.70
2022-07-25T13:47:04.188Z,35.60
2022-07-25T13:49:32.006Z,35.60
2022-07-25T13:51:58.759Z,35.70
2022-07-25T13:54:25.491Z,35.70
2022-07-25T13:56:52.357Z,35.80
2022-07-25T13:59:21.743Z,35.80
2022-07-25T14:01:49.795Z,35.70
2022-07-25T14:04:16.713Z,35.70
2022-07-25T14:06:43.760Z,35.70
2022-07-25T14:09:11.024Z,35.60
2022-07-25T14:11:37.962Z,35.70
2022-07-25T14:14:04.748Z,35.70
2022-07-25T14:16:32.286Z,35.60
2022-07-25T14:19:00.236Z,35.60
2022-07-25T14:21:27.213Z,35.50
2022-07-25T14:23:53.944Z,35.50
2022-07-25T14:26:20.862Z,35.40
2022-07-25T14:28:47.629Z,35.30
2022-07-25T14:31:14.457Z,35.30
2022-07-25T14:33:41.356Z,35.30
2022-07-25T14:36:09.680Z,35.50
2022-07-25T14:38:36.572Z,35.60
2022-07-25T14:41:05.677Z,35.40
2022-07-25T14:43:35.870Z,35.40
2022-07-25T14:46:02.673Z,35.30
2022-07-25T14:48:29.449Z,35.30
2022-07-25T14:50:56.396Z,35.40
2022-07-25T14:53:23.316Z,35.30
2022-07-25T14:55:50.145Z,35.20
2022-07-25T14:58:16.922Z,35.10
2022-07-25T15:00:44.258Z,34.90
2022-07-25T15:03:11.066Z,35.10
2022-07-25T15:05:38.569Z,35.10
2022-07-25T15:08:06.410Z,35.10
2022-07-25T15:10:33.242Z,35.10
2022-07-25T15:13:28.165Z,34.90
2022-07-25T15:15:47.372Z,35.00
2022-07-25T15:18:14.815Z,34.80
2022-07-25T15:20:41.890Z,34.90
2022-07-25T15:23:08.665Z,35.00
2022-07-25T15:26:00.644Z,35.10
2022-07-25T15:28:22.349Z,35.20
2022-07-25T15:30:50.315Z,35.30
2022-07-25T15:33:20.625Z,35.30
2022-07-25T15:35:48.332Z,35.30
2022-07-25T15:38:15.869Z,35.40
2022-07-25T15:40:46.051Z,35.40
2022-07-25T15:43:13.128Z,35.40
2022-07-25T15:45:44.517Z,35.30
2022-07-25T15:48:13.199Z,35.20
2022-07-25T15:50:42.819Z,35.10
2022-07-25T15:53:10.663Z,35.30
2022-07-25T15:55:39.166Z,35.40
2022-07-25T15:58:06.805Z,35.50
2022-07-25T16:00:33.903Z,35.50
2022-07-25T16:03:00.811Z,35.60
2022-07-25T16:05:27.836Z,36.00
2022-07-25T16:07:54.606Z,36.40
2022-07-25T16:10:21.356Z,36.70
2022-07-25T16:12:49.040Z,37.20
2022-07-25T16:15:16.314Z,37.30
2022-07-25T16:17:43.184Z,37.40
2022-07-25T16:20:10.602Z,37.70
2022-07-25T16:22:39.333Z,38.20
2022-07-25T16:25:06.891Z,38.50
2022-07-25T16:27:33.656Z,38.70
2022-07-25T16:30:01.132Z,38.90
2022-07-25T16:32:27.987Z,38.80
2022-07-25T16:34:54.777Z,38.60
2022-07-25T16:37:22.107Z,38.70
2022-07-25T16:39:48.826Z,38.40
2022-07-25T16:42:15.723Z,38.50
2022-07-25T16:44:42.582Z,38.70
2022-07-25T16:47:09.496Z,38.90
2022-07-25T16:49:36.833Z,38.90
2022-07-25T16:52:03.654Z,39.00
2022-07-25T16:54:30.865Z,39.00
2022-07-25T16:56:59.795Z,38.80
2022-07-25T16:59:26.904Z,38.70
2022-07-25T17:01:53.783Z,38.60
2022-07-25T17:04:20.728Z,38.70
2022-07-25T17:06:47.601Z,38.60
2022-07-25T17:09:14.436Z,38.60
2022-07-25T17:11:41.284Z,38.50
2022-07-25T17:14:08.030Z,37.70
2022-07-25T17:16:34.948Z,37.60
2022-07-25T17:19:05.366Z,37.80
2022-07-25T17:21:32.245Z,37.60
2022-07-25T17:23:58.977Z,37.20
2022-07-25T17:26:26.203Z,36.60
2022-07-25T17:28:53.770Z,35.90
2022-07-25T17:31:20.615Z,35.80
2022-07-25T17:33:47.783Z,35.50
2022-07-25T17:36:14.836Z,35.50
2022-07-25T17:38:42.155Z,35.50
2022-07-25T17:41:08.915Z,35.40
2022-07-25T17:43:35.668Z,35.30
2022-07-25T17:46:02.471Z,35.20
2022-07-25T17:48:29.457Z,34.90
2022-07-25T17:50:56.222Z,34.60
2022-07-25T17:53:22.954Z,34.40
2022-07-25T17:55:49.809Z,34.10
2022-07-25T17:58:16.617Z,33.90
2022-07-25T18:00:43.460Z,33.60
2022-07-25T18:03:10.253Z,33.40
2022-07-25T18:05:37.355Z,33.30
2022-07-25T18:08:04.416Z,33.20
2022-07-25T18:10:31.498Z,33.10
2022-07-25T18:13:00.925Z,33.00
2022-07-25T18:15:28.736Z,32.90
2022-07-25T18:17:55.483Z,32.90
2022-07-25T18:20:22.324Z,32.80
2022-07-25T18:22:49.143Z,32.70
2022-07-25T18:25:16.279Z,32.60
2022-07-25T18:27:45.159Z,32.30
2022-07-25T18:30:12.995Z,32.10
2022-07-25T18:32:40.644Z,31.90
2022-07-25T18:35:07.975Z,31.70
2022-07-25T18:37:36.933Z,31.50
2022-07-25T18:40:05.945Z,31.30
2022-07-25T18:42:33.107Z,31.20
2022-07-25T18:44:59.882Z,31.20
2022-07-25T18:47:30.965Z,31.00
2022-07-25T18:49:59.586Z,30.80
2022-07-25T18:52:27.017Z,30.60
2022-07-25T18:54:53.954Z,30.50
2022-07-25T18:57:20.787Z,30.30
2022-07-25T18:59:47.981Z,30.10
2022-07-25T19:02:14.809Z,30.10
2022-07-25T19:04:41.785Z,30.00
2022-07-25T19:07:09.108Z,30.00
2022-07-25T19:09:36.054Z,29.90
2022-07-25T19:12:03.253Z,29.80
2022-07-25T19:14:30.871Z,29.80
2022-07-25T19:16:58.913Z,29.80
2022-07-25T19:19:26.826Z,29.70
2022-07-25T19:21:54.011Z,29.70
2022-07-25T19:24:21.641Z,29.70
2022-07-25T19:26:49.062Z,29.60
2022-07-25T19:29:16.850Z,29.50
2022-07-25T19:31:44.192Z,29.40
2022-07-25T19:34:11.893Z,29.40
2022-07-25T19:36:39.075Z,29.40
2022-07-25T19:39:06.465Z,29.30
2022-07-25T19:41:33.898Z,29.20
2022-07-25T19:44:00.768Z,29.20
2022-07-25T19:46:31.066Z,29.20
2022-07-25T19:48:58.326Z,29.10
2022-07-25T19:51:25.380Z,29.10
2022-07-25T19:53:52.369Z,29.10
2022-07-25T19:56:20.195Z,29.10
2022-07-25T19:58:47.134Z,29.00
2022-07-25T20:01:13.958Z,29.00
2022-07-25T20:03:41.687Z,28.90
2022-07-25T20:06:09.145Z,28.90
2022-07-25T20:08:39.172Z,28.80
2022-07-25T20:11:07.277Z,28.70
2022-07-25T20:13:34.749Z,28.70
2022-07-25T20:16:03.687Z,28.60
2022-07-25T20:18:30.553Z,28.60
2022-07-25T20:20:57.318Z,28.60
2022-07-25T20:23:24.903Z,28.40
2022-07-25T20:25:52.125Z,28.30
2022-07-25T20:28:19.089Z,28.20
2022-07-25T20:30:46.115Z,28.10
2022-07-25T20:33:13.018Z,28.00
2022-07-25T20:35:40.044Z,28.00
2022-07-25T20:38:09.499Z,27.90
2022-07-25T20:40:42.703Z,27.80
2022-07-25T20:43:13.607Z,27.60
2022-07-25T20:45:40.379Z,27.40
2022-07-25T20:48:07.216Z,27.10
2022-07-25T20:50:37.430Z,26.80
2022-07-25T20:53:06.199Z,26.50
2022-07-25T20:55:34.442Z,26.10
2022-07-25T20:58:02.184Z,25.80
2022-07-25T21:00:30.653Z,25.50
2022-07-25T21:02:58.632Z,25.30
2022-07-25T21:05:26.062Z,25.10
2022-07-25T21:07:53.012Z,24.90
2022-07-25T21:10:20.702Z,24.70
2022-07-25T21:12:47.713Z,24.40
2022-07-25T21:15:14.765Z,24.10
2022-07-25T21:17:41.943Z,23.90
2022-07-25T21:20:11.075Z,23.70
2022-07-25T21:22:37.837Z,23.70
2022-07-25T21:25:05.461Z,23.50
2022-07-25T21:27:32.244Z,23.50
2022-07-25T21:29:59.116Z,23.50
2022-07-25T21:32:26.248Z,23.50
2022-07-25T21:34:53.022Z,23.50
2022-07-25T21:37:19.763Z,23.30
2022-07-25T21:39:46.569Z,23.10
2022-07-25T21:42:13.540Z,22.90
2022-07-25T21:44:44.466Z,22.70
2022-07-25T21:47:12.272Z,22.50
2022-07-25T21:49:57.614Z,22.20
2022-07-25T21:52:30.269Z,22.00
2022-07-25T21:55:03.408Z,21.80
2022-07-25T21:57:30.432Z,21.60
2022-07-25T21:59:57.372Z,21.60
2022-07-25T22:02:24.249Z,21.50
2022-07-25T22:04:51.147Z,21.30
2022-07-25T22:07:18.232Z,21.20
2022-07-25T22:09:45.178Z,21.10
2022-07-25T22:12:12.131Z,21.00
2022-07-25T22:14:38.910Z,20.90
2022-07-25T22:17:05.832Z,20.80
2022-07-25T22:19:33.454Z,20.80
2022-07-25T22:22:00.384Z,20.80
2022-07-25T22:24:27.532Z,20.70
2022-07-25T22:26:54.363Z,20.80
2022-07-25T22:29:21.411Z,20.60
2022-07-25T22:31:49.126Z,20.60
2022-07-25T22:34:16.175Z,20.60
2022-07-25T22:36:43.068Z,20.50
2022-07-25T22:39:10.947Z,20.50
2022-07-25T22:41:38.391Z,20.50
2022-07-25T22:44:05.621Z,20.50
2022-07-25T22:46:33.096Z,20.50
2022-07-25T22:49:00.767Z,20.40
2022-07-25T22:51:29.313Z,20.30
2022-07-25T22:53:57.523Z,20.30
2022-07-25T22:56:24.845Z,20.20
2022-07-25T22:58:52.072Z,20.20
2022-07-25T23:01:19.898Z,20.20
2022-07-25T23:03:50.083Z,20.20
2022-07-25T23:06:19.358Z,20.20
2022-07-25T23:08:46.650Z,20.10
2022-07-25T23:11:13.523Z,20.00
2022-07-25T23:13:40.637Z,20.10
2022-07-25T23:16:10.339Z,20.10
2022-07-25T23:18:37.830Z,20.10
2022-07-25T23:21:04.949Z,20.10
2022-07-25T23:23:31.998Z,20.10
2022-07-25T23:25:58.781Z,20.20
2022-07-25T23:28:25.727Z,20.20
2022-07-25T23:30:52.596Z,20.20
2022-07-25T23:33:25.132Z,20.20
2022-07-25T23:39:59.980Z,20.10
2022-07-25T23:42:26.797Z,20.10
2022-07-25T23:44:53.829Z,20.00
2022-07-25T23:47:26.660Z,19.90
2022-07-25T23:50:06.981Z,19.80
2022-07-25T23:52:33.940Z,19.80
2022-07-25T23:55:01.580Z,19.80
2022-07-25T23:57:28.773Z,19.80
2022-07-25T23:59:55.768Z,19.80
